sensor_id;sensor_type;location;lat;lon;timestamp;P1;durP1;ratioP1;P2;durP2;ratioP2
2173;SDS011;1093;51.424;11.764;2022-08-03T00:00:54;6.67;;;5.97;;
2173;SDS011;1093;51.424;11.764;2022-08-03T00:03:21;7.00;;;5.87;;
2173;SDS011;1093;51.424;11.764;2022-08-03T00:05:47;6.50;;;5.20;;
2173;SDS011;1093;51.424;11.764;2022-08-03T00:08:14;5.90;;;5.40;;
2173;SDS011;1093;51.424;11.764;2022-08-03T00:10:41;7.17;;;4.90;;
2173;SDS011;1093;51.424;11.764;2022-08-03T00:13:09;9.77;;;4.60;;
2173;SDS011;1093;51.424;11.764;2022-08-03T00:15:37;9.83;;;5.20;;
2173;SDS011;1093;51.424;11.764;2022-08-03T00:18:04;5.13;;;4.50;;
2173;SDS011;1093;51.424;11.764;2022-08-03T00:20:31;5.33;;;4.83;;
2173;SDS011;1093;51.424;11.764;2022-08-03T00:22:58;6.03;;;5.53;;
2173;SDS011;1093;51.424;11.764;2022-08-03T00:25:24;12.33;;;6.17;;
2173;SDS011;1093;51.424;11.764;2022-08-03T00:27:51;5.37;;;4.80;;
2173;SDS011;1093;51.424;11.764;2022-08-03T00:30:20;5.40;;;4.90;;
2173;SDS011;1093;51.424;11.764;2022-08-03T00:32:46;8.40;;;6.07;;
2173;SDS011;1093;51.424;11.764;2022-08-03T00:35:13;6.57;;;5.90;;
2173;SDS011;1093;51.424;11.764;2022-08-03T00:37:39;6.23;;;5.63;;
2173;SDS011;1093;51.424;11.764;2022-08-03T00:40:07;9.40;;;5.93;;
2173;SDS011;1093;51.424;11.764;2022-08-03T00:42:43;9.30;;;6.00;;
2173;SDS011;1093;51.424;11.764;2022-08-03T00:45:12;8.27;;;6.10;;
2173;SDS011;1093;51.424;11.764;2022-08-03T00:47:40;7.17;;;5.53;;
2173;SDS011;1093;51.424;11.764;2022-08-03T00:50:07;9.67;;;5.57;;
2173;SDS011;1093;51.424;11.764;2022-08-03T00:52:34;5.67;;;5.17;;
2173;SDS011;1093;51.424;11.764;2022-08-03T00:55:01;6.07;;;5.50;;
2173;SDS011;1093;51.424;11.764;2022-08-03T00:57:28;6.37;;;5.67;;
2173;SDS011;1093;51.424;11.764;2022-08-03T00:59:56;7.17;;;5.50;;
2173;SDS011;1093;51.424;11.764;2022-08-03T01:02:24;7.07;;;5.40;;
2173;SDS011;1093;51.424;11.764;2022-08-03T01:04:52;6.37;;;5.80;;
2173;SDS011;1093;51.424;11.764;2022-08-03T01:07:21;6.40;;;5.40;;
2173;SDS011;1093;51.424;11.764;2022-08-03T01:09:58;7.63;;;5.00;;
2173;SDS011;1093;51.424;11.764;2022-08-03T01:12:30;7.70;;;5.60;;
2173;SDS011;1093;51.424;11.764;2022-08-03T01:15:02;9.57;;;6.07;;
2173;SDS011;1093;51.424;11.764;2022-08-03T01:17:38;5.87;;;5.37;;
2173;SDS011;1093;51.424;11.764;2022-08-03T01:20:12;5.80;;;5.13;;
2173;SDS011;1093;51.424;11.764;2022-08-03T01:25:53;6.20;;;5.60;;
2173;SDS011;1093;51.424;11.764;2022-08-03T01:28:32;6.27;;;5.67;;
2173;SDS011;1093;51.424;11.764;2022-08-03T01:31:17;6.10;;;5.47;;
2173;SDS011;1093;51.424;11.764;2022-08-03T01:33:50;5.37;;;4.87;;
2173;SDS011;1093;51.424;11.764;2022-08-03T01:36:23;5.63;;;5.13;;
2173;SDS011;1093;51.424;11.764;2022-08-03T01:38:55;8.57;;;5.47;;
2173;SDS011;1093;51.424;11.764;2022-08-03T01:41:28;7.27;;;5.03;;
2173;SDS011;1093;51.424;11.764;2022-08-03T01:43:56;7.17;;;5.33;;
2173;SDS011;1093;51.424;11.764;2022-08-03T01:46:26;8.63;;;6.00;;
2173;SDS011;1093;51.424;11.764;2022-08-03T01:48:54;6.63;;;5.90;;
2173;SDS011;1093;51.424;11.764;2022-08-03T01:51:24;6.50;;;5.90;;
2173;SDS011;1093;51.424;11.764;2022-08-03T01:53:50;5.70;;;5.20;;
2173;SDS011;1093;51.424;11.764;2022-08-03T01:56:19;9.23;;;4.90;;
2173;SDS011;1093;51.424;11.764;2022-08-03T01:58:49;7.00;;;5.33;;
2173;SDS011;1093;51.424;11.764;2022-08-03T02:01:17;5.13;;;4.73;;
2173;SDS011;1093;51.424;11.764;2022-08-03T02:03:48;7.30;;;5.27;;
2173;SDS011;1093;51.424;11.764;2022-08-03T02:06:15;6.43;;;5.63;;
2173;SDS011;1093;51.424;11.764;2022-08-03T02:08:45;6.83;;;6.10;;
2173;SDS011;1093;51.424;11.764;2022-08-03T02:11:13;7.60;;;5.83;;
2173;SDS011;1093;51.424;11.764;2022-08-03T02:13:41;6.07;;;5.47;;
2173;SDS011;1093;51.424;11.764;2022-08-03T02:16:09;6.80;;;6.10;;
2173;SDS011;1093;51.424;11.764;2022-08-03T02:18:38;7.87;;;6.40;;
2173;SDS011;1093;51.424;11.764;2022-08-03T02:21:07;7.90;;;6.67;;
2173;SDS011;1093;51.424;11.764;2022-08-03T02:23:36;7.50;;;6.87;;
2173;SDS011;1093;51.424;11.764;2022-08-03T02:26:04;7.00;;;6.40;;
2173;SDS011;1093;51.424;11.764;2022-08-03T02:28:34;7.43;;;6.70;;
2173;SDS011;1093;51.424;11.764;2022-08-03T02:31:04;6.53;;;5.77;;
2173;SDS011;1093;51.424;11.764;2022-08-03T02:33:37;12.13;;;6.90;;
2173;SDS011;1093;51.424;11.764;2022-08-03T02:36:08;10.33;;;5.90;;
2173;SDS011;1093;51.424;11.764;2022-08-03T02:38:40;6.67;;;6.10;;
2173;SDS011;1093;51.424;11.764;2022-08-03T02:41:12;8.47;;;6.80;;
2173;SDS011;1093;51.424;11.764;2022-08-03T02:43:41;7.67;;;5.40;;
2173;SDS011;1093;51.424;11.764;2022-08-03T02:46:13;10.60;;;6.00;;
2173;SDS011;1093;51.424;11.764;2022-08-03T02:48:44;5.80;;;5.23;;
2173;SDS011;1093;51.424;11.764;2022-08-03T02:51:13;8.80;;;6.00;;
2173;SDS011;1093;51.424;11.764;2022-08-03T02:53:44;6.03;;;5.43;;
2173;SDS011;1093;51.424;11.764;2022-08-03T02:56:12;9.13;;;4.70;;
2173;SDS011;1093;51.424;11.764;2022-08-03T02:58:40;4.97;;;4.53;;
2173;SDS011;1093;51.424;11.764;2022-08-03T03:01:08;5.10;;;4.70;;
2173;SDS011;1093;51.424;11.764;2022-08-03T03:03:36;5.33;;;4.80;;
2173;SDS011;1093;51.424;11.764;2022-08-03T03:06:05;7.73;;;5.20;;
2173;SDS011;1093;51.424;11.764;2022-08-03T03:08:34;6.33;;;5.50;;
2173;SDS011;1093;51.424;11.764;2022-08-03T03:11:02;5.53;;;4.90;;
2173;SDS011;1093;51.424;11.764;2022-08-03T03:13:29;5.20;;;4.80;;
2173;SDS011;1093;51.424;11.764;2022-08-03T03:15:59;7.43;;;4.40;;
2173;SDS011;1093;51.424;11.764;2022-08-03T03:18:27;6.50;;;5.33;;
2173;SDS011;1093;51.424;11.764;2022-08-03T03:20:56;5.77;;;4.60;;
2173;SDS011;1093;51.424;11.764;2022-08-03T03:23:24;6.13;;;5.53;;
2173;SDS011;1093;51.424;11.764;2022-08-03T03:25:54;5.17;;;4.77;;
2173;SDS011;1093;51.424;11.764;2022-08-03T03:28:22;9.60;;;4.87;;
2173;SDS011;1093;51.424;11.764;2022-08-03T03:30:49;9.70;;;4.90;;
2173;SDS011;1093;51.424;11.764;2022-08-03T03:33:16;6.43;;;5.80;;
2173;SDS011;1093;51.424;11.764;2022-08-03T03:35:43;6.03;;;5.10;;
2173;SDS011;1093;51.424;11.764;2022-08-03T03:38:10;5.60;;;4.60;;
2173;SDS011;1093;51.424;11.764;2022-08-03T03:40:37;5.17;;;4.70;;
2173;SDS011;1093;51.424;11.764;2022-08-03T03:43:08;5.30;;;4.80;;
2173;SDS011;1093;51.424;11.764;2022-08-03T03:45:35;6.20;;;5.50;;
2173;SDS011;1093;51.424;11.764;2022-08-03T03:48:03;6.20;;;5.67;;
2173;SDS011;1093;51.424;11.764;2022-08-03T03:50:31;11.20;;;6.37;;
2173;SDS011;1093;51.424;11.764;2022-08-03T03:52:59;7.83;;;5.43;;
2173;SDS011;1093;51.424;11.764;2022-08-03T03:55:27;7.13;;;5.47;;
2173;SDS011;1093;51.424;11.764;2022-08-03T03:57:54;5.37;;;4.87;;
2173;SDS011;1093;51.424;11.764;2022-08-03T04:00:22;9.13;;;5.20;;
2173;SDS011;1093;51.424;11.764;2022-08-03T04:02:49;6.67;;;5.77;;
2173;SDS011;1093;51.424;11.764;2022-08-03T04:05:15;8.40;;;4.83;;
2173;SDS011;1093;51.424;11.764;2022-08-03T04:08:00;8.03;;;5.30;;
2173;SDS011;1093;51.424;11.764;2022-08-03T04:10:53;4.90;;;4.40;;
2173;SDS011;1093;51.424;11.764;2022-08-03T04:13:28;7.07;;;5.30;;
2173;SDS011;1093;51.424;11.764;2022-08-03T04:15:59;7.63;;;5.07;;
2173;SDS011;1093;51.424;11.764;2022-08-03T04:18:27;5.10;;;4.57;;
2173;SDS011;1093;51.424;11.764;2022-08-03T04:20:56;6.30;;;5.47;;
2173;SDS011;1093;51.424;11.764;2022-08-03T04:23:27;6.03;;;5.00;;
2173;SDS011;1093;51.424;11.764;2022-08-03T04:25:58;5.93;;;5.20;;
2173;SDS011;1093;51.424;11.764;2022-08-03T04:28:26;7.43;;;5.00;;
2173;SDS011;1093;51.424;11.764;2022-08-03T04:30:53;8.10;;;4.97;;
2173;SDS011;1093;51.424;11.764;2022-08-03T04:33:23;6.60;;;5.47;;
2173;SDS011;1093;51.424;11.764;2022-08-03T04:35:52;5.30;;;4.80;;
2173;SDS011;1093;51.424;11.764;2022-08-03T04:38:22;8.13;;;4.80;;
2173;SDS011;1093;51.424;11.764;2022-08-03T04:40:51;8.20;;;5.10;;
2173;SDS011;1093;51.424;11.764;2022-08-03T04:43:19;5.83;;;5.00;;
2173;SDS011;1093;51.424;11.764;2022-08-03T04:45:47;7.20;;;5.27;;
2173;SDS011;1093;51.424;11.764;2022-08-03T04:48:16;8.53;;;5.20;;
2173;SDS011;1093;51.424;11.764;2022-08-03T04:50:45;6.13;;;5.10;;
2173;SDS011;1093;51.424;11.764;2022-08-03T04:53:12;11.30;;;5.30;;
2173;SDS011;1093;51.424;11.764;2022-08-03T04:55:39;12.23;;;5.30;;
2173;SDS011;1093;51.424;11.764;2022-08-03T04:58:06;9.60;;;5.43;;
2173;SDS011;1093;51.424;11.764;2022-08-03T05:00:32;7.17;;;4.83;;
2173;SDS011;1093;51.424;11.764;2022-08-03T05:02:59;7.63;;;5.17;;
2173;SDS011;1093;51.424;11.764;2022-08-03T05:05:26;6.80;;;5.77;;
2173;SDS011;1093;51.424;11.764;2022-08-03T05:07:54;5.20;;;4.57;;
2173;SDS011;1093;51.424;11.764;2022-08-03T05:10:21;7.73;;;5.23;;
2173;SDS011;1093;51.424;11.764;2022-08-03T05:12:47;6.73;;;5.73;;
2173;SDS011;1093;51.424;11.764;2022-08-03T05:15:15;8.13;;;6.03;;
2173;SDS011;1093;51.424;11.764;2022-08-03T05:17:42;5.60;;;5.10;;
2173;SDS011;1093;51.424;11.764;2022-08-03T05:20:09;4.67;;;4.27;;
2173;SDS011;1093;51.424;11.764;2022-08-03T05:22:37;5.10;;;4.00;;
2173;SDS011;1093;51.424;11.764;2022-08-03T05:25:05;7.20;;;4.00;;
2173;SDS011;1093;51.424;11.764;2022-08-03T05:27:32;6.43;;;3.63;;
2173;SDS011;1093;51.424;11.764;2022-08-03T05:30:00;4.90;;;4.20;;
2173;SDS011;1093;51.424;11.764;2022-08-03T05:32:27;5.30;;;3.90;;
2173;SDS011;1093;51.424;11.764;2022-08-03T05:34:53;3.60;;;3.30;;
2173;SDS011;1093;51.424;11.764;2022-08-03T05:37:20;6.03;;;3.40;;
2173;SDS011;1093;51.424;11.764;2022-08-03T05:39:47;3.73;;;3.17;;
2173;SDS011;1093;51.424;11.764;2022-08-03T05:42:15;3.60;;;3.30;;
2173;SDS011;1093;51.424;11.764;2022-08-03T05:44:42;3.17;;;2.87;;
2173;SDS011;1093;51.424;11.764;2022-08-03T05:47:08;3.53;;;3.23;;
2173;SDS011;1093;51.424;11.764;2022-08-03T05:49:35;4.90;;;3.50;;
2173;SDS011;1093;51.424;11.764;2022-08-03T05:52:02;6.67;;;4.23;;
2173;SDS011;1093;51.424;11.764;2022-08-03T05:54:29;3.47;;;3.17;;
2173;SDS011;1093;51.424;11.764;2022-08-03T05:56:56;5.13;;;3.23;;
2173;SDS011;1093;51.424;11.764;2022-08-03T05:59:24;9.93;;;3.10;;
2173;SDS011;1093;51.424;11.764;2022-08-03T06:01:51;3.57;;;3.20;;
2173;SDS011;1093;51.424;11.764;2022-08-03T06:04:17;5.07;;;2.90;;
2173;SDS011;1093;51.424;11.764;2022-08-03T06:06:44;3.93;;;2.93;;
2173;SDS011;1093;51.424;11.764;2022-08-03T06:09:11;7.13;;;3.40;;
2173;SDS011;1093;51.424;11.764;2022-08-03T06:11:39;6.83;;;3.13;;
2173;SDS011;1093;51.424;11.764;2022-08-03T06:14:06;3.80;;;3.20;;
2173;SDS011;1093;51.424;11.764;2022-08-03T06:16:34;8.43;;;2.53;;
2173;SDS011;1093;51.424;11.764;2022-08-03T06:19:01;4.93;;;2.80;;
2173;SDS011;1093;51.424;11.764;2022-08-03T06:21:27;5.00;;;3.17;;
2173;SDS011;1093;51.424;11.764;2022-08-03T06:23:54;3.37;;;2.17;;
2173;SDS011;1093;51.424;11.764;2022-08-03T06:26:21;6.87;;;3.17;;
2173;SDS011;1093;51.424;11.764;2022-08-03T06:28:49;2.47;;;2.27;;
2173;SDS011;1093;51.424;11.764;2022-08-03T06:31:16;8.80;;;3.20;;
2173;SDS011;1093;51.424;11.764;2022-08-03T06:33:44;9.27;;;2.87;;
2173;SDS011;1093;51.424;11.764;2022-08-03T06:36:10;3.80;;;3.20;;
2173;SDS011;1093;51.424;11.764;2022-08-03T06:38:37;4.67;;;3.50;;
2173;SDS011;1093;51.424;11.764;2022-08-03T06:41:03;4.60;;;3.20;;
2173;SDS011;1093;51.424;11.764;2022-08-03T06:43:30;2.93;;;2.70;;
2173;SDS011;1093;51.424;11.764;2022-08-03T06:45:59;2.77;;;2.57;;
2173;SDS011;1093;51.424;11.764;2022-08-03T06:48:26;9.50;;;2.80;;
2173;SDS011;1093;51.424;11.764;2022-08-03T06:50:54;6.67;;;3.17;;
2173;SDS011;1093;51.424;11.764;2022-08-03T06:53:21;5.43;;;2.83;;
2173;SDS011;1093;51.424;11.764;2022-08-03T06:55:48;6.43;;;2.77;;
2173;SDS011;1093;51.424;11.764;2022-08-03T06:58:14;3.90;;;2.27;;
2173;SDS011;1093;51.424;11.764;2022-08-03T07:00:41;2.57;;;2.37;;
2173;SDS011;1093;51.424;11.764;2022-08-03T07:03:08;3.87;;;2.63;;
2173;SDS011;1093;51.424;11.764;2022-08-03T07:05:35;6.03;;;2.80;;
2173;SDS011;1093;51.424;11.764;2022-08-03T07:08:04;2.60;;;2.40;;
2173;SDS011;1093;51.424;11.764;2022-08-03T07:10:31;3.33;;;2.60;;
2173;SDS011;1093;51.424;11.764;2022-08-03T07:12:58;2.83;;;2.57;;
2173;SDS011;1093;51.424;11.764;2022-08-03T07:15:25;2.70;;;2.40;;
2173;SDS011;1093;51.424;11.764;2022-08-03T07:17:52;3.07;;;2.30;;
2173;SDS011;1093;51.424;11.764;2022-08-03T07:20:18;8.87;;;2.87;;
2173;SDS011;1093;51.424;11.764;2022-08-03T07:22:45;2.27;;;2.07;;
2173;SDS011;1093;51.424;11.764;2022-08-03T07:25:13;3.90;;;2.57;;
2173;SDS011;1093;51.424;11.764;2022-08-03T07:27:42;4.10;;;2.50;;
2173;SDS011;1093;51.424;11.764;2022-08-03T07:30:09;5.17;;;2.00;;
2173;SDS011;1093;51.424;11.764;2022-08-03T07:32:37;3.83;;;2.43;;
2173;SDS011;1093;51.424;11.764;2022-08-03T07:35:04;7.17;;;2.50;;
2173;SDS011;1093;51.424;11.764;2022-08-03T07:37:32;8.17;;;2.60;;
2173;SDS011;1093;51.424;11.764;2022-08-03T07:39:58;5.53;;;2.27;;
2173;SDS011;1093;51.424;11.764;2022-08-03T07:42:27;5.27;;;3.00;;
2173;SDS011;1093;51.424;11.764;2022-08-03T07:44:55;5.10;;;2.50;;
2173;SDS011;1093;51.424;11.764;2022-08-03T07:47:23;3.60;;;2.60;;
2173;SDS011;1093;51.424;11.764;2022-08-03T07:49:52;4.43;;;2.53;;
2173;SDS011;1093;51.424;11.764;2022-08-03T07:52:19;4.30;;;2.87;;
2173;SDS011;1093;51.424;11.764;2022-08-03T07:55:04;2.53;;;2.30;;
2173;SDS011;1093;51.424;11.764;2022-08-03T07:57:33;4.50;;;2.63;;
2173;SDS011;1093;51.424;11.764;2022-08-03T08:00:00;2.80;;;2.60;;
2173;SDS011;1093;51.424;11.764;2022-08-03T08:02:27;6.43;;;3.00;;
2173;SDS011;1093;51.424;11.764;2022-08-03T08:04:54;6.70;;;3.40;;
2173;SDS011;1093;51.424;11.764;2022-08-03T08:07:21;3.00;;;2.40;;
2173;SDS011;1093;51.424;11.764;2022-08-03T08:09:49;2.47;;;2.27;;
2173;SDS011;1093;51.424;11.764;2022-08-03T08:12:15;2.90;;;2.60;;
2173;SDS011;1093;51.424;11.764;2022-08-03T08:14:43;2.50;;;2.30;;
2173;SDS011;1093;51.424;11.764;2022-08-03T08:17:10;3.43;;;2.57;;
2173;SDS011;1093;51.424;11.764;2022-08-03T08:19:37;4.90;;;2.60;;
2173;SDS011;1093;51.424;11.764;2022-08-03T08:22:04;4.70;;;2.67;;
2173;SDS011;1093;51.424;11.764;2022-08-03T08:24:31;3.30;;;2.00;;
2173;SDS011;1093;51.424;11.764;2022-08-03T08:26:58;2.70;;;2.50;;
2173;SDS011;1093;51.424;11.764;2022-08-03T08:29:26;4.43;;;2.80;;
2173;SDS011;1093;51.424;11.764;2022-08-03T08:31:54;5.57;;;2.80;;
2173;SDS011;1093;51.424;11.764;2022-08-03T08:34:21;3.83;;;2.40;;
2173;SDS011;1093;51.424;11.764;2022-08-03T08:36:47;5.63;;;2.23;;
2173;SDS011;1093;51.424;11.764;2022-08-03T08:39:14;3.70;;;2.70;;
2173;SDS011;1093;51.424;11.764;2022-08-03T08:41:40;3.20;;;2.10;;
2173;SDS011;1093;51.424;11.764;2022-08-03T08:44:07;6.73;;;2.80;;
2173;SDS011;1093;51.424;11.764;2022-08-03T08:46:34;3.40;;;2.70;;
2173;SDS011;1093;51.424;11.764;2022-08-03T08:49:04;2.23;;;2.03;;
2173;SDS011;1093;51.424;11.764;2022-08-03T08:51:34;2.30;;;2.07;;
2173;SDS011;1093;51.424;11.764;2022-08-03T08:54:04;4.30;;;2.67;;
2173;SDS011;1093;51.424;11.764;2022-08-03T08:56:33;8.73;;;3.10;;
2173;SDS011;1093;51.424;11.764;2022-08-03T08:59:02;2.90;;;2.70;;
2173;SDS011;1093;51.424;11.764;2022-08-03T09:01:29;3.60;;;3.00;;
2173;SDS011;1093;51.424;11.764;2022-08-03T09:03:56;2.53;;;2.33;;
2173;SDS011;1093;51.424;11.764;2022-08-03T09:06:24;3.73;;;2.30;;
2173;SDS011;1093;51.424;11.764;2022-08-03T09:08:51;3.90;;;2.93;;
2173;SDS011;1093;51.424;11.764;2022-08-03T09:11:19;3.67;;;2.80;;
2173;SDS011;1093;51.424;11.764;2022-08-03T09:13:47;3.20;;;2.80;;
2173;SDS011;1093;51.424;11.764;2022-08-03T09:16:15;3.00;;;2.67;;
2173;SDS011;1093;51.424;11.764;2022-08-03T09:18:44;4.50;;;2.97;;
2173;SDS011;1093;51.424;11.764;2022-08-03T09:21:13;5.23;;;2.37;;
2173;SDS011;1093;51.424;11.764;2022-08-03T09:23:45;3.13;;;2.83;;
2173;SDS011;1093;51.424;11.764;2022-08-03T09:26:18;5.73;;;2.80;;
2173;SDS011;1093;51.424;11.764;2022-08-03T09:28:46;4.20;;;2.60;;
2173;SDS011;1093;51.424;11.764;2022-08-03T09:31:22;2.90;;;2.50;;
2173;SDS011;1093;51.424;11.764;2022-08-03T09:33:55;2.50;;;2.30;;
2173;SDS011;1093;51.424;11.764;2022-08-03T09:36:34;3.70;;;3.30;;
2173;SDS011;1093;51.424;11.764;2022-08-03T09:39:04;4.70;;;2.87;;
2173;SDS011;1093;51.424;11.764;2022-08-03T09:41:34;3.90;;;3.10;;
2173;SDS011;1093;51.424;11.764;2022-08-03T09:44:02;5.40;;;2.90;;
2173;SDS011;1093;51.424;11.764;2022-08-03T09:46:29;7.90;;;3.23;;
2173;SDS011;1093;51.424;11.764;2022-08-03T09:49:09;2.67;;;2.40;;
2173;SDS011;1093;51.424;11.764;2022-08-03T09:51:38;4.20;;;2.80;;
2173;SDS011;1093;51.424;11.764;2022-08-03T09:54:06;3.80;;;2.80;;
2173;SDS011;1093;51.424;11.764;2022-08-03T09:56:36;6.60;;;2.70;;
2173;SDS011;1093;51.424;11.764;2022-08-03T09:59:08;3.30;;;3.00;;
2173;SDS011;1093;51.424;11.764;2022-08-03T10:01:35;3.83;;;3.00;;
2173;SDS011;1093;51.424;11.764;2022-08-03T10:04:03;3.80;;;2.90;;
2173;SDS011;1093;51.424;11.764;2022-08-03T10:06:31;3.53;;;3.23;;
2173;SDS011;1093;51.424;11.764;2022-08-03T10:09:04;4.40;;;3.20;;
2173;SDS011;1093;51.424;11.764;2022-08-03T10:11:34;2.87;;;2.57;;
2173;SDS011;1093;51.424;11.764;2022-08-03T10:14:05;3.23;;;2.93;;
2173;SDS011;1093;51.424;11.764;2022-08-03T10:16:33;2.87;;;2.67;;
2173;SDS011;1093;51.424;11.764;2022-08-03T10:19:04;4.60;;;3.40;;
2173;SDS011;1093;51.424;11.764;2022-08-03T10:21:32;6.73;;;2.40;;
2173;SDS011;1093;51.424;11.764;2022-08-03T10:24:01;4.83;;;2.87;;
2173;SDS011;1093;51.424;11.764;2022-08-03T10:26:31;2.40;;;2.30;;
2173;SDS011;1093;51.424;11.764;2022-08-03T10:29:01;4.50;;;2.93;;
2173;SDS011;1093;51.424;11.764;2022-08-03T10:31:33;3.30;;;3.00;;
2173;SDS011;1093;51.424;11.764;2022-08-03T10:34:03;3.03;;;2.60;;
2173;SDS011;1093;51.424;11.764;2022-08-03T10:36:32;3.10;;;2.20;;
2173;SDS011;1093;51.424;11.764;2022-08-03T10:39:02;3.20;;;2.60;;
2173;SDS011;1093;51.424;11.764;2022-08-03T10:41:30;5.27;;;3.10;;
2173;SDS011;1093;51.424;11.764;2022-08-03T10:44:07;3.03;;;2.80;;
2173;SDS011;1093;51.424;11.764;2022-08-03T10:46:35;5.70;;;3.00;;
2173;SDS011;1093;51.424;11.764;2022-08-03T10:49:04;5.33;;;2.33;;
2173;SDS011;1093;51.424;11.764;2022-08-03T10:51:32;6.23;;;3.27;;
2173;SDS011;1093;51.424;11.764;2022-08-03T10:53:59;3.23;;;3.03;;
2173;SDS011;1093;51.424;11.764;2022-08-03T10:56:40;5.90;;;2.47;;
2173;SDS011;1093;51.424;11.764;2022-08-03T11:05:25;2.63;;;2.40;;
2173;SDS011;1093;51.424;11.764;2022-08-03T11:10:53;2.97;;;2.63;;
2173;SDS011;1093;51.424;11.764;2022-08-03T11:13:23;3.10;;;2.80;;
2173;SDS011;1093;51.424;11.764;2022-08-03T11:15:53;2.67;;;2.47;;
2173;SDS011;1093;51.424;11.764;2022-08-03T11:18:20;3.50;;;3.20;;
2173;SDS011;1093;51.424;11.764;2022-08-03T11:20:49;8.77;;;3.70;;
2173;SDS011;1093;51.424;11.764;2022-08-03T11:23:17;3.03;;;2.80;;
2173;SDS011;1093;51.424;11.764;2022-08-03T11:28:50;3.03;;;2.73;;
2173;SDS011;1093;51.424;11.764;2022-08-03T11:34:11;5.30;;;3.10;;
2173;SDS011;1093;51.424;11.764;2022-08-03T11:39:43;5.40;;;2.30;;
2173;SDS011;1093;51.424;11.764;2022-08-03T11:42:36;3.30;;;3.10;;
2173;SDS011;1093;51.424;11.764;2022-08-03T11:45:10;3.40;;;2.63;;
2173;SDS011;1093;51.424;11.764;2022-08-03T11:47:38;3.20;;;2.40;;
2173;SDS011;1093;51.424;11.764;2022-08-03T11:50:05;2.70;;;2.50;;
2173;SDS011;1093;51.424;11.764;2022-08-03T11:52:34;3.27;;;2.70;;
2173;SDS011;1093;51.424;11.764;2022-08-03T11:55:07;2.83;;;2.50;;
2173;SDS011;1093;51.424;11.764;2022-08-03T11:57:35;2.90;;;2.60;;
2173;SDS011;1093;51.424;11.764;2022-08-03T12:00:02;3.37;;;2.30;;
2173;SDS011;1093;51.424;11.764;2022-08-03T12:02:53;3.37;;;2.70;;
2173;SDS011;1093;51.424;11.764;2022-08-03T12:05:31;4.53;;;2.67;;
2173;SDS011;1093;51.424;11.764;2022-08-03T12:08:01;3.00;;;2.80;;
2173;SDS011;1093;51.424;11.764;2022-08-03T12:10:28;4.83;;;3.00;;
2173;SDS011;1093;51.424;11.764;2022-08-03T12:12:55;8.40;;;2.90;;
2173;SDS011;1093;51.424;11.764;2022-08-03T12:15:24;3.60;;;2.40;;
2173;SDS011;1093;51.424;11.764;2022-08-03T12:17:51;3.03;;;2.10;;
2173;SDS011;1093;51.424;11.764;2022-08-03T12:20:21;2.73;;;2.30;;
2173;SDS011;1093;51.424;11.764;2022-08-03T12:22:49;2.93;;;2.60;;
2173;SDS011;1093;51.424;11.764;2022-08-03T12:25:20;2.20;;;2.10;;
2173;SDS011;1093;51.424;11.764;2022-08-03T12:27:48;3.10;;;2.57;;
2173;SDS011;1093;51.424;11.764;2022-08-03T12:30:15;3.33;;;2.27;;
2173;SDS011;1093;51.424;11.764;2022-08-03T12:32:42;2.33;;;2.23;;
2173;SDS011;1093;51.424;11.764;2022-08-03T12:35:15;3.57;;;2.37;;
2173;SDS011;1093;51.424;11.764;2022-08-03T12:37:47;2.93;;;2.73;;
2173;SDS011;1093;51.424;11.764;2022-08-03T12:40:15;2.87;;;2.67;;
2173;SDS011;1093;51.424;11.764;2022-08-03T12:42:49;3.20;;;2.30;;
2173;SDS011;1093;51.424;11.764;2022-08-03T12:45:17;3.60;;;3.30;;
2173;SDS011;1093;51.424;11.764;2022-08-03T12:47:50;5.13;;;2.90;;
2173;SDS011;1093;51.424;11.764;2022-08-03T12:50:24;3.43;;;3.00;;
2173;SDS011;1093;51.424;11.764;2022-08-03T12:52:52;3.47;;;3.17;;
2173;SDS011;1093;51.424;11.764;2022-08-03T12:55:19;7.63;;;3.00;;
2173;SDS011;1093;51.424;11.764;2022-08-03T12:57:47;3.30;;;2.70;;
2173;SDS011;1093;51.424;11.764;2022-08-03T13:00:15;2.83;;;2.63;;
2173;SDS011;1093;51.424;11.764;2022-08-03T13:02:43;4.70;;;2.70;;
2173;SDS011;1093;51.424;11.764;2022-08-03T13:05:10;4.10;;;2.60;;
2173;SDS011;1093;51.424;11.764;2022-08-03T13:07:42;2.97;;;2.67;;
2173;SDS011;1093;51.424;11.764;2022-08-03T13:10:10;2.60;;;2.47;;
2173;SDS011;1093;51.424;11.764;2022-08-03T13:12:47;3.10;;;2.47;;
2173;SDS011;1093;51.424;11.764;2022-08-03T13:15:15;2.87;;;2.57;;
2173;SDS011;1093;51.424;11.764;2022-08-03T13:17:41;3.00;;;2.60;;
2173;SDS011;1093;51.424;11.764;2022-08-03T13:20:08;3.57;;;2.70;;
2173;SDS011;1093;51.424;11.764;2022-08-03T13:22:35;3.80;;;2.87;;
2173;SDS011;1093;51.424;11.764;2022-08-03T13:25:04;3.20;;;2.60;;
2173;SDS011;1093;51.424;11.764;2022-08-03T13:27:31;3.67;;;2.60;;
2173;SDS011;1093;51.424;11.764;2022-08-03T13:29:57;4.73;;;2.87;;
2173;SDS011;1093;51.424;11.764;2022-08-03T13:32:24;3.17;;;2.67;;
2173;SDS011;1093;51.424;11.764;2022-08-03T13:34:51;3.10;;;2.80;;
2173;SDS011;1093;51.424;11.764;2022-08-03T13:37:18;5.73;;;3.03;;
2173;SDS011;1093;51.424;11.764;2022-08-03T13:39:44;3.40;;;2.90;;
2173;SDS011;1093;51.424;11.764;2022-08-03T13:42:12;4.10;;;2.97;;
2173;SDS011;1093;51.424;11.764;2022-08-03T13:44:39;3.10;;;2.80;;
2173;SDS011;1093;51.424;11.764;2022-08-03T13:47:05;3.77;;;2.90;;
2173;SDS011;1093;51.424;11.764;2022-08-03T13:49:33;3.40;;;2.30;;
2173;SDS011;1093;51.424;11.764;2022-08-03T13:52:04;2.90;;;2.50;;
2173;SDS011;1093;51.424;11.764;2022-08-03T13:54:30;3.13;;;2.63;;
2173;SDS011;1093;51.424;11.764;2022-08-03T13:56:57;3.90;;;2.33;;
2173;SDS011;1093;51.424;11.764;2022-08-03T13:59:25;2.97;;;2.57;;
2173;SDS011;1093;51.424;11.764;2022-08-03T14:01:52;5.40;;;2.60;;
2173;SDS011;1093;51.424;11.764;2022-08-03T14:04:19;4.47;;;3.03;;
2173;SDS011;1093;51.424;11.764;2022-08-03T14:06:47;4.03;;;3.47;;
2173;SDS011;1093;51.424;11.764;2022-08-03T14:09:14;2.63;;;2.43;;
2173;SDS011;1093;51.424;11.764;2022-08-03T14:11:41;3.83;;;2.80;;
2173;SDS011;1093;51.424;11.764;2022-08-03T14:14:09;2.73;;;2.53;;
2173;SDS011;1093;51.424;11.764;2022-08-03T14:16:37;2.57;;;2.37;;
2173;SDS011;1093;51.424;11.764;2022-08-03T14:19:04;2.80;;;2.33;;
2173;SDS011;1093;51.424;11.764;2022-08-03T14:21:32;2.73;;;2.53;;
2173;SDS011;1093;51.424;11.764;2022-08-03T14:23:59;2.50;;;2.30;;
2173;SDS011;1093;51.424;11.764;2022-08-03T14:26:26;3.23;;;2.90;;
2173;SDS011;1093;51.424;11.764;2022-08-03T14:28:54;4.00;;;2.70;;
2173;SDS011;1093;51.424;11.764;2022-08-03T14:31:21;2.87;;;2.67;;
2173;SDS011;1093;51.424;11.764;2022-08-03T14:33:49;2.63;;;2.43;;
2173;SDS011;1093;51.424;11.764;2022-08-03T14:36:16;3.37;;;2.53;;
2173;SDS011;1093;51.424;11.764;2022-08-03T14:38:43;4.00;;;3.27;;
2173;SDS011;1093;51.424;11.764;2022-08-03T14:41:10;2.23;;;2.03;;
2173;SDS011;1093;51.424;11.764;2022-08-03T14:43:36;2.77;;;2.57;;
2173;SDS011;1093;51.424;11.764;2022-08-03T14:46:03;2.53;;;2.33;;
2173;SDS011;1093;51.424;11.764;2022-08-03T14:48:31;2.93;;;2.30;;
2173;SDS011;1093;51.424;11.764;2022-08-03T14:50:59;3.23;;;2.73;;
2173;SDS011;1093;51.424;11.764;2022-08-03T14:53:26;2.80;;;2.60;;
2173;SDS011;1093;51.424;11.764;2022-08-03T14:55:54;3.17;;;2.97;;
2173;SDS011;1093;51.424;11.764;2022-08-03T14:58:21;3.63;;;2.63;;
2173;SDS011;1093;51.424;11.764;2022-08-03T15:00:51;2.70;;;2.50;;
2173;SDS011;1093;51.424;11.764;2022-08-03T15:03:18;3.20;;;2.50;;
2173;SDS011;1093;51.424;11.764;2022-08-03T15:05:47;2.80;;;2.60;;
2173;SDS011;1093;51.424;11.764;2022-08-03T15:08:15;2.90;;;2.60;;
2173;SDS011;1093;51.424;11.764;2022-08-03T15:10:42;3.03;;;2.23;;
2173;SDS011;1093;51.424;11.764;2022-08-03T15:13:08;2.73;;;2.53;;
2173;SDS011;1093;51.424;11.764;2022-08-03T15:15:35;3.20;;;2.37;;
2173;SDS011;1093;51.424;11.764;2022-08-03T15:18:02;2.70;;;2.10;;
2173;SDS011;1093;51.424;11.764;2022-08-03T15:20:28;3.80;;;2.60;;
2173;SDS011;1093;51.424;11.764;2022-08-03T15:22:55;6.43;;;2.93;;
2173;SDS011;1093;51.424;11.764;2022-08-03T15:25:23;6.70;;;2.97;;
2173;SDS011;1093;51.424;11.764;2022-08-03T15:27:50;2.87;;;2.67;;
2173;SDS011;1093;51.424;11.764;2022-08-03T15:30:17;2.60;;;2.40;;